sensor_id;sensor_type;location;lat;lon;timestamp;temperature;humidity
52439;DHT22;38359;53.150;6.504;2023-04-21T00:05:06;9.80;99.90
52439;DHT22;38359;53.150;6.504;2023-04-21T00:15:38;9.80;99.90
52439;DHT22;38359;53.150;6.504;2023-04-21T00:26:03;9.90;99.90
52439;DHT22;38359;53.150;6.504;2023-04-21T00:36:29;9.70;99.90
52439;DHT22;38359;53.150;6.504;2023-04-21T00:46:55;9.60;99.90
52439;DHT22;38359;53.150;6.504;2023-04-21T00:57:21;9.50;99.90
52439;DHT22;38359;53.150;6.504;2023-04-21T01:07:48;9.40;99.90
52439;DHT22;38359;53.150;6.504;2023-04-21T01:18:14;9.30;99.90
52439;DHT22;38359;53.150;6.504;2023-04-21T01:28:42;9.30;99.90
52439;DHT22;38359;53.150;6.504;2023-04-21T01:39:08;9.20;99.90
52439;DHT22;38359;53.150;6.504;2023-04-21T01:49:34;9.20;99.90
52439;DHT22;38359;53.150;6.504;2023-04-21T01:59:59;9.20;99.90
52439;DHT22;38359;53.150;6.504;2023-04-21T02:10:25;9.10;99.90
52439;DHT22;38359;53.150;6.504;2023-04-21T02:20:51;9.00;99.90
52439;DHT22;38359;53.150;6.504;2023-04-21T02:31:17;9.00;99.90
52439;DHT22;38359;53.150;6.504;2023-04-21T02:41:43;8.90;99.90
52439;DHT22;38359;53.150;6.504;2023-04-21T02:52:09;8.90;99.90
52439;DHT22;38359;53.150;6.504;2023-04-21T03:02:34;9.00;99.90
52439;DHT22;38359;53.150;6.504;2023-04-21T03:13:00;8.80;99.90
52439;DHT22;38359;53.150;6.504;2023-04-21T03:23:26;8.70;99.90
52439;DHT22;38359;53.150;6.504;2023-04-21T03:33:52;8.60;99.90
52439;DHT22;38359;53.150;6.504;2023-04-21T03:44:17;8.50;99.90
52439;DHT22;38359;53.150;6.504;2023-04-21T03:54:43;8.40;99.90
52439;DHT22;38359;53.150;6.504;2023-04-21T04:05:09;8.40;99.90
52439;DHT22;38359;53.150;6.504;2023-04-21T04:15:35;8.40;99.90
52439;DHT22;38359;53.150;6.504;2023-04-21T04:26:00;8.40;99.90
52439;DHT22;38359;53.150;6.504;2023-04-21T04:36:28;8.40;99.90
52439;DHT22;38359;53.150;6.504;2023-04-21T04:46:56;8.30;99.90
52439;DHT22;38359;53.150;6.504;2023-04-21T04:57:22;8.50;99.90
52439;DHT22;38359;53.150;6.504;2023-04-21T05:07:47;8.50;99.90
52439;DHT22;38359;53.150;6.504;2023-04-21T05:18:13;8.60;99.90
52439;DHT22;38359;53.150;6.504;2023-04-21T05:28:39;8.60;99.90
52439;DHT22;38359;53.150;6.504;2023-04-21T05:39:05;8.80;99.90
52439;DHT22;38359;53.150;6.504;2023-04-21T05:49:31;8.90;99.90
52439;DHT22;38359;53.150;6.504;2023-04-21T05:59:57;9.00;99.90
52439;DHT22;38359;53.150;6.504;2023-04-21T06:10:23;9.10;99.90
52439;DHT22;38359;53.150;6.504;2023-04-21T06:20:50;9.30;99.90
52439;DHT22;38359;53.150;6.504;2023-04-21T06:31:16;9.70;99.90
52439;DHT22;38359;53.150;6.504;2023-04-21T06:41:44;10.00;99.90
52439;DHT22;38359;53.150;6.504;2023-04-21T06:52:09;10.30;99.90
52439;DHT22;38359;53.150;6.504;2023-04-21T07:02:35;10.60;99.90
52439;DHT22;38359;53.150;6.504;2023-04-21T07:13:01;10.90;99.90
52439;DHT22;38359;53.150;6.504;2023-04-21T07:23:27;11.00;99.90
52439;DHT22;38359;53.150;6.504;2023-04-21T07:33:53;11.10;99.90
52439;DHT22;38359;53.150;6.504;2023-04-21T07:44:19;11.50;99.90
52439;DHT22;38359;53.150;6.504;2023-04-21T07:54:44;11.70;99.90
52439;DHT22;38359;53.150;6.504;2023-04-21T08:05:10;11.90;99.90
52439;DHT22;38359;53.150;6.504;2023-04-21T08:15:36;12.20;99.90
52439;DHT22;38359;53.150;6.504;2023-04-21T08:26:02;12.50;99.90
52439;DHT22;38359;53.150;6.504;2023-04-21T08:36:28;12.80;99.90
52439;DHT22;38359;53.150;6.504;2023-04-21T08:46:55;13.20;99.90
52439;DHT22;38359;53.150;6.504;2023-04-21T08:57:21;13.50;99.90
52439;DHT22;38359;53.150;6.504;2023-04-21T09:07:46;13.70;99.90
52439;DHT22;38359;53.150;6.504;2023-04-21T09:18:24;14.30;99.90
52439;DHT22;38359;53.150;6.504;2023-04-21T09:28:52;14.70;99.90
52439;DHT22;38359;53.150;6.504;2023-04-21T09:39:21;15.00;99.90
52439;DHT22;38359;53.150;6.504;2023-04-21T09:49:51;15.20;99.90
52439;DHT22;38359;53.150;6.504;2023-04-21T10:00:17;15.60;99.90
52439;DHT22;38359;53.150;6.504;2023-04-21T10:10:46;16.00;99.90
52439;DHT22;38359;53.150;6.504;2023-04-21T10:21:20;16.20;99.90
52439;DHT22;38359;53.150;6.504;2023-04-21T10:31:52;16.40;99.90
52439;DHT22;38359;53.150;6.504;2023-04-21T10:42:20;17.00;99.90
52439;DHT22;38359;53.150;6.504;2023-04-21T10:52:52;17.30;99.90
52439;DHT22;38359;53.150;6.504;2023-04-21T11:03:23;17.70;99.90
52439;DHT22;38359;53.150;6.504;2023-04-21T11:13:51;18.10;99.90
52439;DHT22;38359;53.150;6.504;2023-04-21T11:24:18;18.40;99.90
52439;DHT22;38359;53.150;6.504;2023-04-21T11:34:45;18.90;99.90
52439;DHT22;38359;53.150;6.504;2023-04-21T11:45:18;18.60;99.90
52439;DHT22;38359;53.150;6.504;2023-04-21T11:55:47;18.00;99.90
52439;DHT22;38359;53.150;6.504;2023-04-21T12:06:22;20.10;99.90
52439;DHT22;38359;53.150;6.504;2023-04-21T12:16:52;19.60;99.90
52439;DHT22;38359;53.150;6.504;2023-04-21T12:27:19;19.30;99.90
52439;DHT22;38359;53.150;6.504;2023-04-21T12:37:46;19.50;99.90
52439;DHT22;38359;53.150;6.504;2023-04-21T12:48:12;20.70;99.90
52439;DHT22;38359;53.150;6.504;2023-04-21T12:58:38;19.40;99.90
52439;DHT22;38359;53.150;6.504;2023-04-21T13:09:05;19.30;99.90
52439;DHT22;38359;53.150;6.504;2023-04-21T13:19:31;20.10;99.90
52439;DHT22;38359;53.150;6.504;2023-04-21T13:29:57;19.80;99.90
52439;DHT22;38359;53.150;6.504;2023-04-21T13:40:22;21.60;99.90
52439;DHT22;38359;53.150;6.504;2023-04-21T13:50:48;20.50;99.90
52439;DHT22;38359;53.150;6.504;2023-04-21T14:01:15;20.90;99.90
52439;DHT22;38359;53.150;6.504;2023-04-21T14:11:41;20.40;99.90
52439;DHT22;38359;53.150;6.504;2023-04-21T14:22:06;20.30;99.90
52439;DHT22;38359;53.150;6.504;2023-04-21T14:32:32;20.30;99.90
52439;DHT22;38359;53.150;6.504;2023-04-21T14:42:58;20.00;99.90
52439;DHT22;38359;53.150;6.504;2023-04-21T14:53:24;20.40;99.90
52439;DHT22;38359;53.150;6.504;2023-04-21T15:03:50;22.80;99.90
52439;DHT22;38359;53.150;6.504;2023-04-21T15:14:15;22.00;99.90
52439;DHT22;38359;53.150;6.504;2023-04-21T15:24:41;22.10;99.90
52439;DHT22;38359;53.150;6.504;2023-04-21T15:35:07;23.40;99.90
52439;DHT22;38359;53.150;6.504;2023-04-21T15:45:33;22.20;99.90
52439;DHT22;38359;53.150;6.504;2023-04-21T15:55:59;21.20;99.90
52439;DHT22;38359;53.150;6.504;2023-04-21T16:06:25;22.40;99.90
52439;DHT22;38359;53.150;6.504;2023-04-21T16:16:53;22.20;99.90
52439;DHT22;38359;53.150;6.504;2023-04-21T16:27:19;22.40;99.90
52439;DHT22;38359;53.150;6.504;2023-04-21T16:37:45;24.00;99.90
52439;DHT22;38359;53.150;6.504;2023-04-21T16:48:11;24.20;99.90
52439;DHT22;38359;53.150;6.504;2023-04-21T16:58:36;24.20;99.90
52439;DHT22;38359;53.150;6.504;2023-04-21T17:09:03;24.40;99.90
52439;DHT22;38359;53.150;6.504;2023-04-21T17:19:28;21.80;99.90
52439;DHT22;38359;53.150;6.504;2023-04-21T17:29:54;20.60;99.90
52439;DHT22;38359;53.150;6.504;2023-04-21T17:40:21;20.00;99.90
52439;DHT22;38359;53.150;6.504;2023-04-21T17:50:47;19.70;99.90
52439;DHT22;38359;53.150;6.504;2023-04-21T18:01:12;19.30;99.90
52439;DHT22;38359;53.150;6.504;2023-04-21T18:11:38;19.20;99.90
52439;DHT22;38359;53.150;6.504;2023-04-21T18:22:04;18.90;99.90
52439;DHT22;38359;53.150;6.504;2023-04-21T18:32:30;18.70;99.90
52439;DHT22;38359;53.150;6.504;2023-04-21T18:42:58;18.30;99.90
52439;DHT22;38359;53.150;6.504;2023-04-21T18:53:24;17.90;99.90
52439;DHT22;38359;53.150;6.504;2023-04-21T19:03:50;17.70;99.90
52439;DHT22;38359;53.150;6.504;2023-04-21T19:14:16;17.10;99.90
52439;DHT22;38359;53.150;6.504;2023-04-21T19:24:42;16.80;99.90
52439;DHT22;38359;53.150;6.504;2023-04-21T19:35:07;16.50;99.90
52439;DHT22;38359;53.150;6.504;2023-04-21T19:45:33;16.30;99.90
52439;DHT22;38359;53.150;6.504;2023-04-21T19:55:59;16.30;99.90
52439;DHT22;38359;53.150;6.504;2023-04-21T20:06:25;16.30;99.90
52439;DHT22;38359;53.150;6.504;2023-04-21T20:16:51;16.40;99.90
52439;DHT22;38359;53.150;6.504;2023-04-21T20:27:17;16.10;99.90
52439;DHT22;38359;53.150;6.504;2023-04-21T20:37:43;15.70;99.90
52439;DHT22;38359;53.150;6.504;2023-04-21T20:48:09;15.90;99.90
52439;DHT22;38359;53.150;6.504;2023-04-21T20:58:35;15.30;99.90
52439;DHT22;38359;53.150;6.504;2023-04-21T21:09:01;15.20;99.90
52439;DHT22;38359;53.150;6.504;2023-04-21T21:19:27;15.00;99.90
52439;DHT22;38359;53.150;6.504;2023-04-21T21:29:52;14.80;99.90
52439;DHT22;38359;53.150;6.504;2023-04-21T21:40:18;14.60;99.90
52439;DHT22;38359;53.150;6.504;2023-04-21T21:50:45;14.20;99.90
52439;DHT22;38359;53.150;6.504;2023-04-21T22:01:10;14.30;99.90
52439;DHT22;38359;53.150;6.504;2023-04-21T22:11:36;14.00;99.90
52439;DHT22;38359;53.150;6.504;2023-04-21T22:22:02;13.70;99.90
52439;DHT22;38359;53.150;6.504;2023-04-21T22:32:28;13.60;99.90
52439;DHT22;38359;53.150;6.504;2023-04-21T22:42:56;13.50;99.90
52439;DHT22;38359;53.150;6.504;2023-04-21T23:04:53;13.70;99.90
52439;DHT22;38359;53.150;6.504;2023-04-21T23:15:19;13.50;99.90
52439;DHT22;38359;53.150;6.504;2023-04-21T23:25:45;13.40;99.90
52439;DHT22;38359;53.150;6.504;2023-04-21T23:36:11;13.40;99.90
52439;DHT22;38359;53.150;6.504;2023-04-21T23:46:37;12.70;99.90
52439;DHT22;38359;53.150;6.504;2023-04-21T23:57:03;12.40;99.90
